Time;durP1;ratioP1;P1;durP2;ratioP2;P2;SDS_P1;SDS_P2;PMS_P1;PMS_P2;Temp;Humidity;BMP_temperature;BMP_pressure;BME280_temperature;BME280_humidity;BME280_pressure;Samples;Min_cycle;Max_cycle;Signal;HPM_P1;HPM_P2
2024/04/22 00:00:38;;;;;;;;;;;;;;;17.87;43.97;100569.47;11176803;26;1213;-70
2024/04/22 00:05:34;;;;;;;;;;;;;;;17.87;43.86;100580.03;11176606;26;2153;-70
2024/04/22 00:10:30;;;;;;;;;;;;;;;17.86;43.85;100567.72;11175919;26;906;-70
2024/04/22 00:15:26;;;;;;;;;;;;;;;17.84;43.80;100567.78;11176447;26;818;-70
2024/04/22 00:20:22;;;;;;;;;;;;;;;17.84;44.21;100564.25;11176283;26;839;-70
2024/04/22 00:25:17;;;;;;;;;;;;;;;17.83;43.77;100558.13;11176063;26;1820;-70
2024/04/22 00:30:13;;;;;;;;;;;;;;;17.83;44.09;100560.75;11175927;26;877;-70
2024/04/22 00:35:09;;;;;;;;;;;;;;;17.81;43.66;100546.75;11175840;26;912;-70
2024/04/22 00:40:05;;;;;;;;;;;;;;;17.80;43.90;100549.47;11175738;26;889;-70
2024/04/22 00:45:01;;;;;;;;;;;;;;;17.81;43.87;100548.53;11173992;26;1838;-70
2024/04/22 00:49:57;;;;;;;;;;;;;;;17.80;43.48;100544.19;11175394;26;898;-70
2024/04/22 00:54:53;;;;;;;;;;;;;;;17.78;43.71;100546.81;11175190;26;869;-70
2024/04/22 00:59:49;;;;;;;;;;;;;;;17.78;43.68;100559.16;11175020;26;1236;-70
2024/04/22 01:04:45;;;;;;;;;;;;;;;17.79;43.65;100576.69;11174814;26;1839;-70
2024/04/22 01:09:40;;;;;;;;;;;;;;;17.78;43.83;100564.41;11174754;26;931;-70
2024/04/22 01:14:36;;;;;;;;;;;;;;;17.75;43.62;100555.69;11174647;26;915;-70
2024/04/22 01:19:32;;;;;;;;;;;;;;;17.76;43.55;100551.28;11175186;26;865;-70
2024/04/22 01:24:28;;;;;;;;;;;;;;;17.75;43.50;100553.06;11174162;26;1836;-70
2024/04/22 01:29:24;;;;;;;;;;;;;;;17.73;43.97;100546.94;11174820;26;879;-70
2024/04/22 01:34:20;;;;;;;;;;;;;;;17.74;43.61;100539.94;11173985;26;930;-70
2024/04/22 01:39:16;;;;;;;;;;;;;;;17.74;44.17;100532.03;11173791;26;869;-70
2024/04/22 01:44:11;;;;;;;;;;;;;;;17.73;44.11;100535.56;11173560;26;1852;-70
2024/04/22 01:49:07;;;;;;;;;;;;;;;17.73;44.12;100531.13;11174151;26;825;-70
2024/04/22 01:54:03;;;;;;;;;;;;;;;17.71;43.53;100532.97;11173907;26;892;-70
2024/04/22 01:58:59;;;;;;;;;;;;;;;17.71;43.76;100530.34;11177162;26;1138;-70
2024/04/22 02:03:55;;;;;;;;;;;;;;;17.71;43.95;100529.44;11180403;26;1844;-70
2024/04/22 02:08:51;;;;;;;;;;;;;;;17.70;43.96;100520.69;11180101;26;945;-70
2024/04/22 02:13:47;;;;;;;;;;;;;;;17.69;43.57;100529.53;11179383;26;841;-70
2024/04/22 02:18:43;;;;;;;;;;;;;;;17.68;43.96;100522.53;11179866;26;809;-70
2024/04/22 02:23:39;;;;;;;;;;;;;;;17.67;43.65;100515.50;11179210;26;1836;-70
2024/04/22 02:28:35;;;;;;;;;;;;;;;17.66;43.81;100519.06;11178947;26;875;-70
2024/04/22 02:33:31;;;;;;;;;;;;;;;17.65;43.81;100525.22;11179446;26;958;-70
2024/04/22 02:38:26;;;;;;;;;;;;;;;17.65;43.55;100521.75;11178594;26;857;-70
2024/04/22 02:43:22;;;;;;;;;;;;;;;17.63;43.48;100513.91;11178397;26;1852;-70
2024/04/22 02:48:18;;;;;;;;;;;;;;;17.63;44.06;100510.38;11178336;26;832;-70
2024/04/22 02:53:14;;;;;;;;;;;;;;;17.62;43.50;100511.28;11178882;26;883;-70
2024/04/22 02:58:10;;;;;;;;;;;;;;;17.60;44.07;100506.06;11178704;26;889;-70
2024/04/22 03:03:06;;;;;;;;;;;;;;;17.61;43.79;100504.31;11177782;26;1850;-70
2024/04/22 03:08:02;;;;;;;;;;;;;;;17.59;43.80;100499.06;11178024;26;899;-70
2024/04/22 03:12:57;;;;;;;;;;;;;;;17.59;43.63;100498.22;11178868;26;899;-70
2024/04/22 03:17:53;;;;;;;;;;;;;;;17.58;43.73;100505.25;11178165;26;902;-70
2024/04/22 03:22:49;;;;;;;;;;;;;;;17.58;43.39;100499.09;11177320;26;1829;-70
2024/04/22 03:27:45;;;;;;;;;;;;;;;17.57;43.44;100505.28;11177218;26;935;-70
2024/04/22 03:32:41;;;;;;;;;;;;;;;17.56;43.59;100493.91;11177095;26;844;-70
2024/04/22 03:37:37;;;;;;;;;;;;;;;17.57;43.72;100492.97;11176958;26;927;-70
2024/04/22 03:42:33;;;;;;;;;;;;;;;17.58;43.33;100480.66;11176717;26;805;-70
2024/04/22 03:52:43;;;;;;;;;;;;;;;17.59;43.72;100482.41;11177735;26;656;-70
2024/04/22 03:57:39;;;;;;;;;;;;;;;17.60;43.29;100469.16;11176893;26;946;-70
2024/04/22 04:02:35;;;;;;;;;;;;;;;17.60;44.07;100477.06;11139322;26;975658;-70
2024/04/22 04:07:31;;;;;;;;;;;;;;;17.61;43.63;100478.81;11176932;26;1856;-70
2024/04/22 04:12:27;;;;;;;;;;;;;;;17.62;43.96;100485.78;11175841;26;876;-70
2024/04/22 04:17:22;;;;;;;;;;;;;;;17.64;43.97;100486.59;11175753;26;859;-70
2024/04/22 04:22:18;;;;;;;;;;;;;;;17.63;43.34;100487.53;11175109;26;838;-70
2024/04/22 04:27:15;;;;;;;;;;;;;;;17.66;43.94;100491.84;11175384;26;1825;-70
2024/04/22 04:32:11;;;;;;;;;;;;;;;17.66;43.49;100494.47;11175292;26;920;-70
2024/04/22 04:37:07;;;;;;;;;;;;;;;17.67;43.58;100485.66;11175102;26;863;-71
2024/04/22 04:42:03;;;;;;;;;;;;;;;17.68;43.35;100484.72;11175721;26;807;-70
2024/04/22 04:46:59;;;;;;;;;;;;;;;17.69;43.85;100484.69;11174842;26;1825;-71
2024/04/22 04:51:55;;;;;;;;;;;;;;;17.70;43.44;100485.56;11174698;26;859;-71
2024/04/22 04:56:50;;;;;;;;;;;;;;;17.71;43.57;100484.63;11174610;26;858;-71
2024/04/22 05:01:46;;;;;;;;;;;;;;;17.72;43.35;100479.31;11174899;26;1223;-71
2024/04/22 05:06:42;;;;;;;;;;;;;;;17.72;43.46;100489.88;11174689;26;1864;-71
2024/04/22 05:11:38;;;;;;;;;;;;;;;17.73;43.52;100488.09;11172610;26;1279;-70
2024/04/22 05:16:34;;;;;;;;;;;;;;;17.74;43.78;100490.69;11173022;26;1083;-71
2024/04/22 05:21:30;;;;;;;;;;;;;;;17.74;43.79;100492.47;11173801;26;938;-70
2024/04/22 05:26:26;;;;;;;;;;;;;;;17.75;43.56;100491.53;11174275;26;1871;-70
2024/04/22 05:31:22;;;;;;;;;;;;;;;17.74;43.65;100495.97;11173227;26;849;-70
2024/04/22 05:36:18;;;;;;;;;;;;;;;17.75;43.60;100492.41;11173196;26;1084;-71
2024/04/22 05:41:14;;;;;;;;;;;;;;;17.74;43.47;100493.31;11173050;26;907;-70
2024/04/22 05:46:11;;;;;;;;;;;;;;;17.77;43.83;100489.72;11172893;26;1824;-71
2024/04/22 05:51:06;;;;;;;;;;;;;;;17.77;43.78;100495.00;11173474;26;1005;-70
2024/04/22 05:56:02;;;;;;;;;;;;;;;17.78;43.60;100498.50;11173212;26;817;-71
2024/04/22 06:00:59;;;;;;;;;;;;;;;17.77;43.63;100488.88;11172871;26;1143;-73
2024/04/22 06:05:55;;;;;;;;;;;;;;;17.78;43.29;100493.22;11173447;26;1868;-72
2024/04/22 06:10:51;;;;;;;;;;;;;;;17.78;43.45;100493.22;11172679;26;814;-76
2024/04/22 06:15:47;;;;;;;;;;;;;;;17.77;43.78;100488.88;11172490;26;954;-73
2024/04/22 06:20:43;;;;;;;;;;;;;;;17.75;43.74;100481.00;11172287;26;810;-71
2024/04/22 06:25:39;;;;;;;;;;;;;;;17.73;43.64;100482.81;11172031;26;1832;-70
2024/04/22 06:30:35;;;;;;;;;;;;;;;17.71;43.42;100490.78;11172741;26;883;-70
2024/04/22 06:35:31;;;;;;;;;;;;;;;17.70;43.20;100489.03;11172433;26;874;-70
2024/04/22 06:40:27;;;;;;;;;;;;;;;17.68;43.79;100485.63;11171537;26;907;-70
2024/04/22 06:45:23;;;;;;;;;;;;;;;17.68;43.52;100480.34;11176637;26;1856;-71
2024/04/22 06:50:19;;;;;;;;;;;;;;;17.67;43.26;100478.59;11179662;26;819;-71
2024/04/22 06:55:14;;;;;;;;;;;;;;;17.68;43.82;100477.72;11179512;26;848;-70
2024/04/22 07:00:10;;;;;;;;;;;;;;;17.69;43.27;100475.94;11178272;26;1133;-70
2024/04/22 07:05:06;;;;;;;;;;;;;;;17.69;43.99;100474.16;11177883;26;1824;-71
2024/04/22 07:10:02;;;;;;;;;;;;;;;17.70;43.84;100467.94;11177838;26;878;-70
2024/04/22 07:14:58;;;;;;;;;;;;;;;17.71;43.32;100467.06;11177607;26;847;-71
2024/04/22 07:19:54;;;;;;;;;;;;;;;17.71;43.85;100463.53;11177524;26;965;-71
2024/04/22 07:24:51;;;;;;;;;;;;;;;17.72;43.66;100460.88;11177273;26;1828;-71
2024/04/22 07:29:47;;;;;;;;;;;;;;;17.73;43.24;100467.00;11177253;26;856;-71
2024/04/22 07:34:43;;;;;;;;;;;;;;;17.74;43.88;100459.06;11177765;26;918;-70
2024/04/22 07:39:39;;;;;;;;;;;;;;;17.76;43.56;100458.97;11176848;26;1047;-71
2024/04/22 07:44:35;;;;;;;;;;;;;;;17.78;43.46;100456.31;11177399;26;1841;-70
2024/04/22 07:49:31;;;;;;;;;;;;;;;17.79;43.27;100465.94;11176613;26;1017;-71
2024/04/22 07:54:26;;;;;;;;;;;;;;;17.80;43.85;100465.06;11175572;26;843;-70
2024/04/22 07:59:22;;;;;;;;;;;;;;;17.79;43.89;100458.94;11175978;26;1103;-70
2024/04/22 08:04:18;;;;;;;;;;;;;;;17.82;43.50;100465.91;11176143;26;1867;-70
2024/04/22 08:09:14;;;;;;;;;;;;;;;17.83;43.29;100464.97;11176693;26;911;-70
2024/04/22 08:14:10;;;;;;;;;;;;;;;17.84;43.85;100467.56;11175852;26;864;-71
2024/04/22 08:19:06;;;;;;;;;;;;;;;17.86;43.83;100456.94;11175757;26;834;-71
2024/04/22 08:24:02;;;;;;;;;;;;;;;17.88;43.23;100465.69;11176192;26;1824;-71
2024/04/22 08:28:57;;;;;;;;;;;;;;;17.90;43.36;100458.59;11176138;26;910;-70
2024/04/22 08:33:53;;;;;;;;;;;;;;;17.90;43.62;100461.22;11175309;26;847;-70
2024/04/22 08:38:49;;;;;;;;;;;;;;;17.92;43.22;100456.75;11175163;26;860;-70
2024/04/22 08:43:45;;;;;;;;;;;;;;;17.90;43.60;100456.81;11174885;26;1840;-71
2024/04/22 08:48:41;;;;;;;;;;;;;;;17.92;43.67;100462.91;11175634;26;1012;-71
2024/04/22 08:53:37;;;;;;;;;;;;;;;17.92;43.49;100459.38;11174713;26;1032;-76
2024/04/22 08:58:33;;;;;;;;;;;;;;;17.87;43.69;100462.19;11175293;26;844;-71
2024/04/22 09:03:29;;;;;;;;;;;;;;;17.91;43.24;100455.03;11175456;26;1864;-72
2024/04/22 09:08:24;;;;;;;;;;;;;;;17.92;43.27;100452.34;11174892;26;895;-70
2024/04/22 09:13:20;;;;;;;;;;;;;;;17.93;43.18;100442.66;11175486;26;816;-74
2024/04/22 09:18:16;;;;;;;;;;;;;;;17.94;43.40;100439.97;11175258;26;891;-71
2024/04/22 09:23:12;;;;;;;;;;;;;;;17.96;43.73;100445.19;11174918;26;1850;-71
2024/04/22 09:28:08;;;;;;;;;;;;;;;18.00;43.58;100440.66;11174251;26;946;-70
2024/04/22 09:33:04;;;;;;;;;;;;;;;18.00;43.40;100435.41;11172256;26;1296;-70
2024/04/22 09:38:00;;;;;;;;;;;;;;;18.01;43.77;100434.50;11169272;26;1248;-70
2024/04/22 09:42:55;;;;;;;;;;;;;;;18.02;42.95;100436.22;11172110;26;1864;-70
2024/04/22 09:47:51;;;;;;;;;;;;;;;17.99;43.60;100426.63;11172223;26;895;-70
2024/04/22 09:52:48;;;;;;;;;;;;;;;18.00;43.69;100427.47;11172346;26;875;-71
2024/04/22 09:57:44;;;;;;;;;;;;;;;18.01;43.38;100430.09;11171925;26;1015;-72
2024/04/22 10:02:40;;;;;;;;;;;;;;;18.03;43.39;100422.13;11172404;26;1032;-72
2024/04/22 10:07:36;;;;;;;;;;;;;;;18.05;43.57;100428.19;11172032;26;1836;-73
2024/04/22 10:12:32;;;;;;;;;;;;;;;18.05;43.38;100426.44;11172366;26;942;-71
2024/04/22 10:17:28;;;;;;;;;;;;;;;18.06;43.59;100420.25;11172767;26;930;-67
2024/04/22 10:22:31;;;;;;;;;;;;;;;18.07;43.46;100413.19;11179249;26;887;-70
2024/04/22 10:27:27;;;;;;;;;;;;;;;18.11;43.60;100417.44;11179083;26;1850;-70
2024/04/22 10:32:23;;;;;;;;;;;;;;;18.09;43.96;100404.31;11178931;26;867;-72
2024/04/22 10:37:19;;;;;;;;;;;;;;;18.10;43.44;100395.50;11178925;26;1025;-70
2024/04/22 10:42:15;;;;;;;;;;;;;;;18.11;43.53;100402.47;11178716;26;853;-71
2024/04/22 10:47:11;;;;;;;;;;;;;;;18.10;43.38;100403.41;11178866;26;1859;-69
2024/04/22 10:52:07;;;;;;;;;;;;;;;18.11;43.76;100410.41;11178372;26;835;-70
2024/04/22 10:57:03;;;;;;;;;;;;;;;18.10;43.85;100411.31;11178374;26;908;-70
2024/04/22 11:01:59;;;;;;;;;;;;;;;18.12;43.61;100414.75;11177474;26;1080;-70
2024/04/22 11:06:55;;;;;;;;;;;;;;;18.14;43.81;100409.44;11177601;26;1840;-71
2024/04/22 11:11:51;;;;;;;;;;;;;;;18.13;43.67;100403.31;11177495;26;807;-71
2024/04/22 11:16:47;;;;;;;;;;;;;;;18.14;43.72;100407.66;11178282;26;817;-70
2024/04/22 11:21:42;;;;;;;;;;;;;;;18.16;43.78;100405.81;11178178;26;897;-71
2024/04/22 11:26:39;;;;;;;;;;;;;;;18.16;43.62;100392.63;11177912;26;1857;-70
2024/04/22 11:31:35;;;;;;;;;;;;;;;18.21;43.55;100388.94;11176923;26;851;-71
2024/04/22 11:36:33;;;;;;;;;;;;;;;18.22;43.78;100377.50;11177719;26;946;-70
2024/04/22 11:41:29;;;;;;;;;;;;;;;18.21;43.59;100370.50;11176997;26;883;-71
2024/04/22 11:46:25;;;;;;;;;;;;;;;18.23;43.67;100363.38;11176649;26;1856;-72
2024/04/22 11:51:21;;;;;;;;;;;;;;;18.25;43.40;100348.38;11177283;26;852;-71
2024/04/22 11:56:16;;;;;;;;;;;;;;;18.24;43.41;100346.66;11177122;26;815;-69
2024/04/22 12:01:12;;;;;;;;;;;;;;;18.27;43.45;100341.25;11176667;26;1046;-71
2024/04/22 12:06:08;;;;;;;;;;;;;;;18.29;43.59;100328.88;11176747;26;1965;-70
2024/04/22 12:11:04;;;;;;;;;;;;;;;18.29;43.33;100315.69;11176559;26;947;-71
2024/04/22 12:16:00;;;;;;;;;;;;;;;18.27;43.54;100321.00;11177254;26;900;-71
2024/04/22 12:20:56;;;;;;;;;;;;;;;18.30;43.68;100304.19;11177044;26;894;-71
2024/04/22 12:25:56;;;;;;;;;;;;;;;18.31;43.46;100314.72;11176829;26;1825;-69
2024/04/22 12:30:52;;;;;;;;;;;;;;;18.34;43.74;100313.75;11176101;26;814;-70
2024/04/22 12:35:47;;;;;;;;;;;;;;;18.34;43.82;100314.59;11175982;26;979;-69
2024/04/22 12:40:43;;;;;;;;;;;;;;;18.35;43.74;100312.81;11175457;26;817;-71
2024/04/22 12:45:39;;;;;;;;;;;;;;;18.36;43.77;100310.09;11175707;26;1832;-70
2024/04/22 12:50:45;;;;;;;;;;;;;;;18.36;43.68;100306.59;11175580;26;914;-69
2024/04/22 12:55:41;;;;;;;;;;;;;;;18.39;43.28;100309.13;11175433;26;1557;-69
2024/04/22 13:00:37;;;;;;;;;;;;;;;18.35;43.60;100307.53;11174789;26;1171;-70
2024/04/22 13:05:34;;;;;;;;;;;;;;;18.35;43.51;100302.25;11175067;26;1836;-69
2024/04/22 13:10:30;;;;;;;;;;;;;;;18.36;43.54;100293.41;11174419;26;873;-69
2024/04/22 13:15:26;;;;;;;;;;;;;;;18.36;43.58;100294.25;11174775;26;903;-69
2024/04/22 13:20:22;;;;;;;;;;;;;;;18.42;43.64;100281.75;11173967;26;816;-69
2024/04/22 13:25:18;;;;;;;;;;;;;;;18.42;43.18;100280.00;11173716;26;1848;-69
2024/04/22 13:30:15;;;;;;;;;;;;;;;18.37;43.53;100274.88;11174345;26;887;-69
2024/04/22 13:35:11;;;;;;;;;;;;;;;18.34;43.58;100269.72;11173585;26;875;-69
2024/04/22 13:40:07;;;;;;;;;;;;;;;18.33;43.63;100264.50;11173249;26;876;-69
2024/04/22 13:45:04;;;;;;;;;;;;;;;18.31;43.92;100284.81;11173650;26;1828;-69
2024/04/22 13:50:00;;;;;;;;;;;;;;;18.31;43.62;100295.34;11173665;26;880;-69
2024/04/22 13:54:56;;;;;;;;;;;;;;;18.31;43.23;100287.44;11179247;26;806;-69
2024/04/22 13:59:52;;;;;;;;;;;;;;;18.32;43.78;100270.72;11180251;26;1079;-69
2024/04/22 14:04:47;;;;;;;;;;;;;;;18.33;43.36;100265.34;11180272;26;1856;-70
2024/04/22 14:09:44;;;;;;;;;;;;;;;18.41;43.66;100265.06;11180206;26;893;-69
2024/04/22 14:14:39;;;;;;;;;;;;;;;18.40;43.48;100266.84;11180113;26;867;-69
2024/04/22 14:19:36;;;;;;;;;;;;;;;18.41;43.29;100265.06;11179829;26;911;-71
2024/04/22 14:24:32;;;;;;;;;;;;;;;18.38;43.45;100260.75;11179693;26;1842;-70
2024/04/22 14:29:28;;;;;;;;;;;;;;;18.39;43.37;100261.63;11180257;26;1038;-69
2024/04/22 14:34:23;;;;;;;;;;;;;;;18.37;43.07;100253.78;11179572;26;817;-70
2024/04/22 14:39:19;;;;;;;;;;;;;;;18.37;43.02;100242.38;11179948;26;894;-69
2024/04/22 14:44:15;;;;;;;;;;;;;;;18.39;43.05;100241.38;11179854;26;1832;-69
2024/04/22 14:49:11;;;;;;;;;;;;;;;18.57;42.46;100234.53;11179773;26;1001;-71
2024/04/22 14:54:07;;;;;;;;;;;;;;;18.69;42.30;100227.06;11178937;26;1038;-69
2024/04/22 14:59:03;;;;;;;;;;;;;;;18.76;42.34;100220.66;11178441;26;1219;-69
2024/04/22 15:03:59;;;;;;;;;;;;;;;18.79;42.30;100221.38;11177292;26;1833;-70
2024/04/22 15:08:55;;;;;;;;;;;;;;;18.88;42.32;100219.28;11177877;26;989;-69
2024/04/22 15:13:50;;;;;;;;;;;;;;;19.00;42.12;100210.88;11178245;26;903;-69
2024/04/22 15:18:46;;;;;;;;;;;;;;;19.09;42.06;100205.19;11177622;26;958;-69
2024/04/22 15:23:45;;;;;;;;;;;;;;;19.11;42.19;100207.78;11178004;26;1824;-69
2024/04/22 15:28:41;;;;;;;;;;;;;;;19.07;42.20;100199.13;11178039;26;858;-69
2024/04/22 15:33:37;;;;;;;;;;;;;;;19.00;42.54;100197.66;11177249;26;893;-70
2024/04/22 15:38:33;;;;;;;;;;;;;;;18.88;42.58;100199.00;11177688;26;989;-70
2024/04/22 15:43:28;;;;;;;;;;;;;;;18.82;42.63;100191.34;11176902;26;1828;-70
2024/04/22 15:48:24;;;;;;;;;;;;;;;18.78;42.51;100189.75;11176768;26;820;-69
2024/04/22 15:53:20;;;;;;;;;;;;;;;18.77;42.71;100188.03;11176653;26;905;-69
2024/04/22 15:58:16;;;;;;;;;;;;;;;18.74;42.57;100183.69;11177007;26;930;-69
2024/04/22 16:03:13;;;;;;;;;;;;;;;18.74;42.67;100188.13;11177220;26;1855;-69
2024/04/22 16:08:09;;;;;;;;;;;;;;;18.73;42.68;100186.38;11176798;26;930;-68
2024/04/22 16:13:05;;;;;;;;;;;;;;;18.73;42.68;100192.56;11176524;26;1353;-69
2024/04/22 16:18:02;;;;;;;;;;;;;;;18.71;42.81;100185.63;11174551;26;822;-67
2024/04/22 16:22:58;;;;;;;;;;;;;;;18.69;42.42;100190.09;11175882;26;1848;-68
2024/04/22 16:27:54;;;;;;;;;;;;;;;18.67;42.31;100186.66;11175827;26;907;-69
2024/04/22 16:32:50;;;;;;;;;;;;;;;18.65;42.60;100188.47;11176293;26;848;-68
2024/04/22 16:37:46;;;;;;;;;;;;;;;18.62;42.37;100182.41;11176190;26;933;-68
2024/04/22 16:42:41;;;;;;;;;;;;;;;18.60;42.56;100180.75;11175950;26;934;-68
2024/04/22 16:47:37;;;;;;;;;;;;;;;18.58;42.77;100185.25;11175153;26;1849;-68
2024/04/22 16:52:33;;;;;;;;;;;;;;;18.55;42.57;100186.22;11175794;26;894;-68
2024/04/22 16:57:29;;;;;;;;;;;;;;;18.52;42.63;100188.09;11174841;26;899;-68
2024/04/22 17:02:25;;;;;;;;;;;;;;;18.49;42.62;100183.81;11174027;26;1271;-69
2024/04/22 17:07:21;;;;;;;;;;;;;;;18.47;42.50;100190.94;11173984;26;1846;-68
2024/04/22 17:12:17;;;;;;;;;;;;;;;18.45;42.68;100186.66;11173769;26;926;-68
2024/04/22 17:17:12;;;;;;;;;;;;;;;18.43;42.30;100183.19;11173707;26;859;-68
2024/04/22 17:22:08;;;;;;;;;;;;;;;18.42;42.40;100187.63;11173459;26;888;-69
2024/04/22 17:27:04;;;;;;;;;;;;;;;18.42;42.57;100192.03;11173450;26;1851;-69
2024/04/22 17:32:00;;;;;;;;;;;;;;;18.40;42.85;100190.31;11173229;26;981;-68
2024/04/22 17:36:56;;;;;;;;;;;;;;;18.41;42.71;100199.09;11173717;26;814;-68
2024/04/22 17:41:52;;;;;;;;;;;;;;;18.42;42.80;100202.56;11172787;26;892;-68
2024/04/22 17:46:48;;;;;;;;;;;;;;;18.42;42.76;100205.22;11173158;26;1842;-70
2024/04/22 17:51:44;;;;;;;;;;;;;;;18.42;42.76;100210.50;11173057;26;963;-70
2024/04/22 17:56:39;;;;;;;;;;;;;;;18.40;42.83;100206.16;11172187;26;888;-69
2024/04/22 18:01:35;;;;;;;;;;;;;;;18.41;43.05;100209.63;11171923;26;1128;-69
2024/04/22 18:06:31;;;;;;;;;;;;;;;18.42;43.25;100219.31;11172430;26;1841;-69
2024/04/22 18:11:29;;;;;;;;;;;;;;;18.42;42.93;100210.50;11171736;26;880;-69
2024/04/22 18:16:25;;;;;;;;;;;;;;;18.43;43.17;100210.44;11171638;26;917;-69
2024/04/22 18:21:21;;;;;;;;;;;;;;;18.43;42.89;100209.59;11171508;26;814;-69
2024/04/22 18:26:17;;;;;;;;;;;;;;;18.43;42.58;100210.44;11171822;26;1852;-69
2024/04/22 18:31:14;;;;;;;;;;;;;;;18.42;43.17;100213.13;11171097;26;963;-69
2024/04/22 18:36:10;;;;;;;;;;;;;;;18.43;42.91;100209.59;11171641;26;1557;-69
2024/04/22 18:41:08;;;;;;;;;;;;;;;18.43;42.99;100210.44;11175580;26;809;-69
2024/04/22 18:46:04;;;;;;;;;;;;;;;18.43;42.77;100209.59;11178078;26;1824;-69
2024/04/22 18:51:00;;;;;;;;;;;;;;;18.43;42.81;100221.00;11178013;26;864;-69
2024/04/22 18:55:56;;;;;;;;;;;;;;;18.44;42.60;100221.84;11177930;26;816;-69
2024/04/22 19:00:52;;;;;;;;;;;;;;;18.43;42.86;100222.78;11178147;26;1185;-69
2024/04/22 19:05:48;;;;;;;;;;;;;;;18.43;42.91;100239.47;11178187;26;1824;-69
2024/04/22 19:10:43;;;;;;;;;;;;;;;18.44;43.05;100242.97;11178154;26;989;-69
2024/04/22 19:15:39;;;;;;;;;;;;;;;18.45;42.77;100244.72;11178668;26;820;-69
2024/04/22 19:20:35;;;;;;;;;;;;;;;18.43;42.74;100249.19;11178471;26;847;-69
2024/04/22 19:25:31;;;;;;;;;;;;;;;18.44;43.12;100259.66;11178169;26;1852;-69
2024/04/22 19:30:27;;;;;;;;;;;;;;;18.44;42.97;100259.66;11177507;26;883;-69
2024/04/22 19:35:23;;;;;;;;;;;;;;;18.44;42.83;100256.19;11177382;26;829;-69
2024/04/22 19:40:19;;;;;;;;;;;;;;;18.43;42.82;100257.97;11177862;26;1048;-69
2024/04/22 19:45:14;;;;;;;;;;;;;;;18.41;43.03;100257.16;11177406;26;1825;-70
2024/04/22 19:50:10;;;;;;;;;;;;;;;18.40;42.94;100258.09;11177541;26;873;-70
2024/04/22 19:55:06;;;;;;;;;;;;;;;18.40;42.78;100260.72;11177156;26;814;-71
2024/04/22 20:00:02;;;;;;;;;;;;;;;18.39;43.18;100253.69;11176563;26;1174;-70
2024/04/22 20:04:58;;;;;;;;;;;;;;;18.38;42.77;100265.19;11176229;26;1874;-70
2024/04/22 20:09:54;;;;;;;;;;;;;;;18.36;42.83;100267.88;11176293;26;918;-70
2024/04/22 20:14:50;;;;;;;;;;;;;;;18.36;43.10;100269.66;11176046;26;1169;-70
2024/04/22 20:19:46;;;;;;;;;;;;;;;18.34;42.82;100275.00;11175943;26;837;-70
2024/04/22 20:24:44;;;;;;;;;;;;;;;18.33;43.00;100273.28;11175655;26;1837;-70
2024/04/22 20:29:40;;;;;;;;;;;;;;;18.33;43.08;100283.81;11175605;26;911;-70
2024/04/22 20:34:35;;;;;;;;;;;;;;;18.33;42.89;100280.34;11175526;26;962;-70
2024/04/22 20:39:31;;;;;;;;;;;;;;;18.32;42.92;100278.63;11175313;26;938;-70
2024/04/22 20:44:27;;;;;;;;;;;;;;;18.31;42.96;100279.53;11175040;26;1852;-70
2024/04/22 20:49:23;;;;;;;;;;;;;;;18.29;42.96;100276.97;11175732;26;833;-70
2024/04/22 20:54:19;;;;;;;;;;;;;;;18.28;43.40;100277.00;11174923;26;881;-70
2024/04/22 20:59:15;;;;;;;;;;;;;;;18.27;42.87;100276.16;11174603;26;1083;-70
2024/04/22 21:04:11;;;;;;;;;;;;;;;18.26;42.75;100270.91;11175196;26;1840;-70
2024/04/22 21:09:07;;;;;;;;;;;;;;;18.25;43.08;100271.84;11175773;26;812;-70
2024/04/22 21:14:02;;;;;;;;;;;;;;;18.23;43.06;100279.81;11174969;26;978;-70
2024/04/22 21:18:58;;;;;;;;;;;;;;;18.22;42.84;100275.44;11175462;26;802;-70
2024/04/22 21:23:54;;;;;;;;;;;;;;;18.20;42.81;100276.44;11174488;26;1828;-70
2024/04/22 21:28:50;;;;;;;;;;;;;;;18.17;42.84;100272.13;11175059;26;870;-70
2024/04/22 21:33:47;;;;;;;;;;;;;;;18.16;43.10;100276.53;11174907;26;1060;-70
2024/04/22 21:38:43;;;;;;;;;;;;;;;18.15;42.86;100266.03;11174780;26;896;-70
2024/04/22 21:43:40;;;;;;;;;;;;;;;18.14;43.06;100278.38;11173989;26;1821;-70
2024/04/22 21:48:36;;;;;;;;;;;;;;;18.13;42.73;100270.50;11174469;26;1589;-70
2024/04/22 21:53:32;;;;;;;;;;;;;;;18.11;43.10;100272.34;11173558;26;864;-70
2024/04/22 21:58:27;;;;;;;;;;;;;;;18.10;42.60;100273.25;11173862;26;929;-70
2024/04/22 22:03:23;;;;;;;;;;;;;;;18.08;42.70;100278.59;11172972;26;1841;-70
2024/04/22 22:08:19;;;;;;;;;;;;;;;18.08;42.95;100280.38;11173107;26;816;-70
2024/04/22 22:13:15;;;;;;;;;;;;;;;18.06;43.19;100274.28;11173685;26;817;-70
2024/04/22 22:18:11;;;;;;;;;;;;;;;18.05;43.19;100278.72;11180088;26;876;-70
2024/04/22 22:23:07;;;;;;;;;;;;;;;18.05;43.29;100273.44;11179906;26;1833;-70
2024/04/22 22:28:03;;;;;;;;;;;;;;;18.02;43.08;100262.97;11179846;26;983;-70
2024/04/22 22:33:01;;;;;;;;;;;;;;;18.01;43.01;100274.44;11179676;26;934;-70
2024/04/22 22:37:57;;;;;;;;;;;;;;;18.01;43.20;100273.59;11180231;26;1004;-70
2024/04/22 22:42:53;;;;;;;;;;;;;;;18.00;43.02;100270.09;11179500;26;966;-70
2024/04/22 22:47:49;;;;;;;;;;;;;;;17.99;43.04;100270.16;11179879;26;1841;-70
2024/04/22 22:52:44;;;;;;;;;;;;;;;17.98;42.69;100266.66;11179159;26;813;-70
2024/04/22 22:57:42;;;;;;;;;;;;;;;17.98;43.23;100271.06;11178986;26;938;-70
2024/04/22 23:02:37;;;;;;;;;;;;;;;17.98;42.83;100266.66;11179219;26;1114;-70
2024/04/22 23:07:33;;;;;;;;;;;;;;;17.95;43.18;100259.72;11178662;26;1836;-70
2024/04/22 23:12:29;;;;;;;;;;;;;;;17.97;42.60;100267.56;11178409;26;833;-70
2024/04/22 23:17:25;;;;;;;;;;;;;;;17.95;43.12;100262.34;11178398;26;915;-70
2024/04/22 23:22:21;;;;;;;;;;;;;;;17.95;42.92;100270.25;11178266;26;914;-70
2024/04/22 23:27:17;;;;;;;;;;;;;;;17.94;42.90;100262.41;11178100;26;1852;-70
2024/04/22 23:32:13;;;;;;;;;;;;;;;17.93;42.76;100265.97;11178666;26;810;-70
2024/04/22 23:37:09;;;;;;;;;;;;;;;17.92;43.39;100262.47;11177784;26;889;-70
2024/04/22 23:42:05;;;;;;;;;;;;;;;17.92;42.67;100259.81;11178071;26;870;-70
2024/04/22 23:47:01;;;;;;;;;;;;;;;17.92;42.65;100254.56;11178097;26;1836;-70
2024/04/22 23:52:09;;;;;;;;;;;;;;;17.91;42.73;100249.31;11178061;26;933;-70
2024/04/22 23:57:05;;;;;;;;;;;;;;;17.90;42.98;100250.25;11177814;26;906;-70
